< < Back
Terminal Aerodrome Forecast


Current Version              Previous Versions:   1  2  3  4  5  6  7  8  9  

Terminal Aerodrome Forecast

948
FTUS42 KGSP 221729
TAFHKY
TAF
KHKY 221729Z 2218/2318 20004KT P6SM FEW250
     FM230000 16002KT P6SM SCT200
     FM230900 04003KT P6SM OVC060
     FM231500 04003KT P6SM -RA OVC013=



Latest METAR

178
SAUS70 KWBC 230900 RRH
MTRHKY
METAR KHKY 230853Z AUTO 02003KT 10SM BKN028 OVC046 06/M01 A3025 RMK AO2
SLP235 T00561011 56005


USA.gov is the U.S. government's official web portal to all federal, state and local government web resources and services.